Time;durP1;ratioP1;P1;durP2;ratioP2;P2;SDS_P1;SDS_P2;PMS_P1;PMS_P2;Temp;Humidity;BMP_temperature;BMP_pressure;BME280_temperature;BME280_humidity;BME280_pressure;Samples;Min_cycle;Max_cycle;Signal;HPM_P1;HPM_P2
2021/06/22 00:00:26;;;;;;;22.58;13.48;;;;;;;20.53;79.19;99407.55;125807;1093;22790;-56
2021/06/22 00:03:18;;;;;;;20.73;13.00;;;;;;;20.49;79.28;99419.28;125675;1093;22953;-57
2021/06/22 00:05:50;;;;;;;22.25;12.58;;;;;;;20.48;79.06;99422.69;125813;1093;22847;-55
2021/06/22 00:08:22;;;;;;;21.88;12.65;;;;;;;20.47;79.22;99415.50;125716;1093;22787;-56
2021/06/22 00:10:54;;;;;;;19.40;12.55;;;;;;;20.47;79.32;99421.93;125912;1093;25868;-58
2021/06/22 00:13:26;;;;;;;22.58;14.05;;;;;;;20.45;79.47;99413.23;125793;1093;22796;-56
2021/06/22 00:15:57;;;;;;;22.40;13.18;;;;;;;20.48;79.07;99405.68;125687;1093;24470;-58
2021/06/22 00:18:29;;;;;;;22.38;14.50;;;;;;;20.50;79.25;99412.30;125654;1093;26239;-57
2021/06/22 00:21:00;;;;;;;24.33;13.75;;;;;;;20.51;79.42;99413.03;125699;1093;25848;-58
2021/06/22 00:23:31;;;;;;;23.30;14.17;;;;;;;20.52;79.18;99403.98;125711;1093;27632;-58
2021/06/22 00:26:04;;;;;;;22.63;12.93;;;;;;;20.55;79.20;99402.83;125708;1093;22788;-60
2021/06/22 00:28:35;;;;;;;25.23;13.63;;;;;;;20.57;79.07;99399.42;125910;1093;25864;-57
2021/06/22 00:31:06;;;;;;;24.25;14.73;;;;;;;20.57;79.43;99405.09;125666;1092;22757;-60
2021/06/22 00:33:38;;;;;;;22.78;13.33;;;;;;;20.55;79.50;99407.73;125694;1093;22787;-56
2021/06/22 00:36:11;;;;;;;23.20;13.90;;;;;;;20.52;79.37;99415.32;125909;1093;22781;-56
2021/06/22 00:38:43;;;;;;;28.30;14.90;;;;;;;20.50;79.82;99409.47;125925;1093;22784;-58
2021/06/22 00:41:15;;;;;;;23.43;15.70;;;;;;;20.47;79.41;99415.50;125787;1093;22826;-58
2021/06/22 00:43:44;;;;;;;24.65;15.50;;;;;;;;;;126078;1093;22787;-56
2021/06/22 00:46:17;;;;;;;21.63;14.23;;;;;;;20.42;80.06;99413.63;125659;1096;22867;-57
2021/06/22 00:48:49;;;;;;;25.03;15.57;;;;;;;20.40;79.88;99411.33;125852;1093;26245;-57
2021/06/22 00:51:20;;;;;;;21.63;15.00;;;;;;;20.39;79.91;99406.23;125804;1093;22764;-58
2021/06/22 00:53:53;;;;;;;23.30;14.40;;;;;;;20.36;80.10;99410.95;125804;1093;22770;-56
2021/06/22 00:56:24;;;;;;;22.10;13.98;;;;;;;20.32;79.90;99424.75;125792;1093;22772;-56
2021/06/22 00:58:56;;;;;;;21.63;13.85;;;;;;;20.30;80.09;99416.06;125826;1093;22797;-57
2021/06/22 01:01:27;;;;;;;25.00;13.57;;;;;;;20.27;79.80;99419.28;125909;1093;22787;-57
2021/06/22 01:03:59;;;;;;;23.70;13.30;;;;;;;20.24;79.92;99409.06;125937;1092;22764;-58
2021/06/22 01:06:30;;;;;;;35.00;12.50;;;;;;;20.18;79.79;99417.73;125804;1093;22874;-59
2021/06/22 01:09:04;;;;;;;20.25;6.70;;;;;;;20.08;80.23;99413.94;125872;1093;22791;-57
2021/06/22 01:11:36;;;;;;;20.45;10.05;;;;;;;19.99;80.35;99426.58;126041;1093;22835;-55
2021/06/22 01:14:08;;;;;;;19.10;10.85;;;;;;;19.96;80.30;99427.72;125808;1092;22786;-55
2021/06/22 01:16:40;;;;;;;17.77;9.93;;;;;;;19.95;80.61;99431.09;125951;1093;24457;-57
2021/06/22 01:19:13;;;;;;;17.20;10.13;;;;;;;19.92;80.47;99421.67;125798;1093;24257;-58
2021/06/22 01:21:45;;;;;;;17.40;10.58;;;;;;;19.89;80.59;99428.45;125969;1093;23011;-56
2021/06/22 01:24:20;;;;;;;21.40;12.53;;;;;;;19.88;80.80;99429.78;125728;1093;22787;-58
2021/06/22 01:26:56;;;;;;;24.27;13.43;;;;;;;19.86;80.75;99423.90;125733;1093;25868;-58
2021/06/22 01:29:29;;;;;;;24.23;14.18;;;;;;;19.84;80.31;99420.88;126049;1093;25897;-58
2021/06/22 01:32:05;;;;;;;26.05;14.45;;;;;;;19.83;80.60;99425.05;125767;1093;22778;-57
2021/06/22 01:34:37;;;;;;;24.60;15.00;;;;;;;19.80;80.55;99431.08;125828;1093;22768;-56
2021/06/22 01:37:10;;;;;;;24.50;13.78;;;;;;;19.72;80.96;99433.88;125824;1093;25867;-57
2021/06/22 01:39:42;;;;;;;20.10;12.30;;;;;;;19.71;80.98;99437.27;125814;1093;24430;-55
2021/06/22 01:42:15;;;;;;;19.70;13.08;;;;;;;19.70;81.43;99432.95;125812;1093;22778;-56
2021/06/22 01:44:50;;;;;;;18.20;11.90;;;;;;;19.72;81.48;99442.38;125722;1093;22821;-58
2021/06/22 01:47:22;;;;;;;18.40;10.87;;;;;;;19.72;81.00;99441.64;125721;1093;25842;-58
2021/06/22 01:50:01;;;;;;;18.90;11.88;;;;;;;19.71;80.97;99438.04;125809;1093;26682;-57
2021/06/22 01:52:34;;;;;;;23.53;13.53;;;;;;;19.70;81.57;99442.17;125764;1092;27626;-58
2021/06/22 01:57:57;;;;;;;24.50;13.60;;;;;;;19.70;81.09;99453.50;125622;1093;22863;-56
2021/06/22 02:00:28;;;;;;;20.35;13.10;;;;;;;19.69;80.98;99463.33;125665;1092;22778;-55
2021/06/22 02:03:00;;;;;;;23.50;14.47;;;;;;;19.68;81.47;99458.20;125719;1093;22858;-55
2021/06/22 02:05:31;;;;;;;24.23;14.67;;;;;;;19.69;81.51;99466.16;125634;1093;26279;-57
2021/06/22 02:08:03;;;;;;;20.93;12.78;;;;;;;19.69;81.41;99463.33;125701;1093;26285;-56
2021/06/22 02:10:34;;;;;;;25.93;13.68;;;;;;;19.69;81.72;99474.66;125916;1093;22781;-55
2021/06/22 02:13:07;;;;;;;20.25;11.40;;;;;;;19.63;82.08;99471.23;125894;1093;22772;-57
2021/06/22 02:15:39;;;;;;;19.00;10.00;;;;;;;19.59;81.81;99465.19;125979;1093;22767;-60
2021/06/22 02:18:12;;;;;;;24.20;12.40;;;;;;;19.60;82.21;99466.69;125890;1092;22790;-58
2021/06/22 02:20:45;;;;;;;18.23;10.68;;;;;;;19.61;82.14;99464.62;126013;1093;22771;-56
2021/06/22 02:23:16;;;;;;;18.30;12.00;;;;;;;19.60;82.41;99475.18;125839;1093;22767;-61
2021/06/22 02:25:49;;;;;;;22.08;13.08;;;;;;;19.56;82.35;99477.61;125912;1092;23036;-58
2021/06/22 02:28:22;;;;;;;23.28;13.88;;;;;;;19.55;82.35;99478.95;125985;1093;22777;-56
2021/06/22 02:30:59;;;;;;;26.30;14.23;;;;;;;19.55;82.65;99486.67;126000;1092;22819;-59
2021/06/22 02:33:30;;;;;;;21.65;13.48;;;;;;;19.55;82.56;99486.67;126140;1093;22764;-58
2021/06/22 02:36:06;;;;;;;24.50;14.28;;;;;;;19.55;82.56;99484.61;125981;1093;22790;-58
2021/06/22 02:38:40;;;;;;;22.85;13.58;;;;;;;19.57;82.81;99484.05;126148;1092;24606;-57
2021/06/22 02:41:12;;;;;;;22.28;14.00;;;;;;;19.55;82.82;99487.44;125836;1093;27210;-58
2021/06/22 02:43:44;;;;;;;24.10;14.40;;;;;;;19.56;82.66;99485.34;125970;1093;22761;-58
2021/06/22 02:46:17;;;;;;;30.30;14.63;;;;;;;19.57;82.65;99492.53;125978;1093;26255;-57
2021/06/22 02:48:49;;;;;;;23.87;13.50;;;;;;;19.57;82.48;99498.96;126107;1092;22786;-57
2021/06/22 02:51:21;;;;;;;21.23;12.27;;;;;;;19.57;82.39;99501.03;125734;1093;27632;-57
2021/06/22 02:53:52;;;;;;;24.37;11.70;;;;;;;19.58;82.19;99511.02;125927;1093;22764;-56
2021/06/22 02:56:24;;;;;;;20.65;11.00;;;;;;;19.58;82.21;99506.13;125927;1093;27265;-59
2021/06/22 02:58:56;;;;;;;25.33;12.90;;;;;;;19.57;82.59;99501.80;125862;1093;27186;-57
2021/06/22 03:01:27;;;;;;;21.80;12.25;;;;;;;19.58;82.08;99497.63;125900;1093;22803;-58
2021/06/22 03:03:59;;;;;;;24.10;13.80;;;;;;;19.59;82.42;99487.07;125986;1093;22794;-58
2021/06/22 03:06:32;;;;;;;22.25;13.85;;;;;;;19.61;82.58;99490.09;125804;1093;22922;-56
2021/06/22 03:09:04;;;;;;;23.48;14.33;;;;;;;19.58;82.70;99477.81;125984;1092;27648;-58
2021/06/22 03:11:36;;;;;;;23.45;12.53;;;;;;;19.53;82.67;99492.91;125845;1092;22791;-58
2021/06/22 03:14:08;;;;;;;22.30;12.55;;;;;;;19.48;82.77;99493.05;125822;1093;22787;-61
2021/06/22 03:16:41;;;;;;;23.30;12.20;;;;;;;19.42;82.94;99479.06;125885;1093;22912;-56
2021/06/22 03:19:13;;;;;;;25.00;12.80;;;;;;;19.41;82.77;99486.03;125995;1093;22787;-58
2021/06/22 03:21:46;;;;;;;25.05;10.90;;;;;;;19.42;82.87;99473.41;125882;1093;22790;-57
2021/06/22 03:24:19;;;;;;;30.28;12.95;;;;;;;19.44;83.38;99475.67;126016;1093;22764;-57
2021/06/22 03:26:51;;;;;;;21.63;11.78;;;;;;;19.45;83.01;99482.86;125945;1093;26255;-58
2021/06/22 03:29:23;;;;;;;22.10;11.05;;;;;;;19.45;83.20;99472.27;125803;1092;24577;-60
2021/06/22 03:31:55;;;;;;;27.80;12.65;;;;;;;19.43;82.99;99466.41;125966;1093;27191;-59
2021/06/22 03:34:27;;;;;;;27.70;12.05;;;;;;;19.42;83.20;99473.41;125800;1093;22767;-58
2021/06/22 03:36:59;;;;;;;27.63;11.10;;;;;;;19.41;83.39;99476.80;125941;1093;23223;-57
2021/06/22 03:39:32;;;;;;;28.55;11.93;;;;;;;19.41;83.14;99488.86;125968;1091;22815;-55
2021/06/22 03:42:04;;;;;;;34.83;11.27;;;;;;;19.42;83.48;99486.80;126142;1093;22761;-58
2021/06/22 03:44:38;;;;;;;29.73;10.78;;;;;;;19.42;83.32;99493.22;126000;1093;26619;-57
2021/06/22 03:47:10;;;;;;;27.05;10.63;;;;;;;19.41;83.43;99491.69;126691;1093;22787;-58
2021/06/22 03:49:41;;;;;;;30.37;10.93;;;;;;;19.41;83.33;99496.61;125887;1093;22842;-58
2021/06/22 03:52:13;;;;;;;34.90;10.98;;;;;;;19.44;83.54;99498.31;125870;1092;22758;-57
2021/06/22 03:54:45;;;;;;;35.43;10.73;;;;;;;19.45;83.57;99500.58;125902;1093;22777;-58
2021/06/22 03:57:17;;;;;;;23.20;10.68;;;;;;;19.50;83.57;99490.41;125900;1093;22992;-56
2021/06/22 03:59:48;;;;;;;35.90;10.00;;;;;;;19.53;83.45;99504.23;125974;1093;22800;-59
2021/06/22 04:02:20;;;;;;;27.68;11.30;;;;;;;19.56;83.71;99500.27;125862;1093;22715;-58
2021/06/22 04:04:51;;;;;;;32.15;10.23;;;;;;;19.59;83.50;99504.06;125897;1093;22794;-56
2021/06/22 04:07:23;;;;;;;30.53;9.58;;;;;;;19.62;83.46;99502.92;125806;1093;22755;-58
2021/06/22 04:09:54;;;;;;;29.03;10.25;;;;;;;19.66;83.76;99514.64;125884;1093;24465;-55
2021/06/22 04:12:25;;;;;;;25.13;10.73;;;;;;;19.69;83.35;99516.37;125850;1093;27581;-60
2021/06/22 04:14:57;;;;;;;23.78;9.00;;;;;;;19.72;83.52;99513.17;125841;1092;22801;-59
2021/06/22 04:17:28;;;;;;;26.98;8.95;;;;;;;19.72;83.47;99510.34;125907;1093;26939;-58
2021/06/22 04:20:00;;;;;;;31.60;9.65;;;;;;;19.76;83.36;99521.33;125932;1092;22776;-60
2021/06/22 04:22:31;;;;;;;28.00;10.63;;;;;;;19.81;83.58;99511.89;125877;1093;22796;-56
2021/06/22 04:25:04;;;;;;;26.90;10.18;;;;;;;19.84;83.45;99507.95;125857;1093;22896;-60
2021/06/22 04:27:36;;;;;;;27.53;9.07;;;;;;;19.86;83.28;99503.21;125979;1093;22852;-60
2021/06/22 04:30:12;;;;;;;31.70;11.40;;;;;;;19.91;83.60;99507.20;125912;1092;22860;-57
2021/06/22 04:32:44;;;;;;;28.10;9.90;;;;;;;19.94;83.58;99515.35;126037;1093;28480;-56
2021/06/22 04:35:18;;;;;;;24.88;9.65;;;;;;;19.96;83.31;99517.61;125834;1093;25893;-55
2021/06/22 04:37:49;;;;;;;29.18;9.98;;;;;;;19.99;83.18;99516.48;125978;1093;27651;-56
2021/06/22 04:40:22;;;;;;;26.98;10.45;;;;;;;20.01;83.22;99517.44;125860;1092;24436;-58
2021/06/22 04:42:53;;;;;;;28.30;10.75;;;;;;;20.06;83.48;99512.92;125905;1093;23206;-57
2021/06/22 04:45:25;;;;;;;24.98;8.85;;;;;;;20.13;83.52;99524.27;125842;1093;25880;-57
2021/06/22 04:47:57;;;;;;;26.37;11.13;;;;;;;20.22;83.48;99525.84;126284;1092;26315;-57
2021/06/22 04:50:29;;;;;;;27.45;10.58;;;;;;;20.28;83.46;99528.52;125840;1093;22769;-58
2021/06/22 04:53:01;;;;;;;28.87;10.47;;;;;;;20.37;83.26;99533.62;125929;1092;22816;-59
2021/06/22 04:55:32;;;;;;;30.15;9.53;;;;;;;20.45;83.29;99543.66;125929;1092;22780;-59
2021/06/22 04:58:06;;;;;;;23.98;9.90;;;;;;;20.51;83.00;99527.22;125872;1093;22760;-58
2021/06/22 05:00:38;;;;;;;24.05;9.08;;;;;;;20.60;83.01;99517.40;126058;1093;25868;-59
2021/06/22 05:03:10;;;;;;;29.20;11.05;;;;;;;20.68;82.94;99520.99;126050;1093;22857;-57
2021/06/22 05:05:41;;;;;;;30.13;11.03;;;;;;;20.74;82.87;99528.00;125950;1093;22774;-59
2021/06/22 05:08:14;;;;;;;31.83;11.90;;;;;;;20.83;83.20;99532.36;125924;1093;22792;-59
2021/06/22 05:10:46;;;;;;;31.68;11.90;;;;;;;20.90;83.07;99520.99;125706;1092;22791;-59
2021/06/22 05:13:18;;;;;;;26.48;10.75;;;;;;;20.98;82.94;99523.84;126174;1093;22908;-59
2021/06/22 05:15:50;;;;;;;35.60;13.27;;;;;;;21.03;83.00;99522.91;125829;1093;27699;-61
2021/06/22 05:18:21;;;;;;;30.18;13.18;;;;;;;21.13;82.84;99531.59;125914;1093;22855;-58
2021/06/22 05:20:53;;;;;;;30.48;12.85;;;;;;;21.23;83.30;99535.39;125882;1093;23452;-61
2021/06/22 05:23:24;;;;;;;31.58;12.80;;;;;;;21.33;82.90;99531.38;125819;1093;23225;-59
2021/06/22 05:25:56;;;;;;;30.63;13.85;;;;;;;21.43;82.70;99531.55;125861;1092;22925;-61
2021/06/22 05:28:28;;;;;;;28.67;13.13;;;;;;;21.54;82.59;99528.32;125675;1093;22791;-58
2021/06/22 05:31:00;;;;;;;27.05;13.25;;;;;;;21.64;82.22;99524.28;126111;1093;22773;-61
2021/06/22 05:33:33;;;;;;;29.60;15.60;;;;;;;21.74;81.83;99527.30;126303;1093;22778;-60
2021/06/22 05:36:05;;;;;;;27.25;13.35;;;;;;;21.80;81.92;99533.52;126195;1093;22786;-61
2021/06/22 05:38:37;;;;;;;36.15;15.20;;;;;;;21.87;82.03;99537.70;126157;1092;22787;-61
2021/06/22 05:41:10;;;;;;;28.87;14.77;;;;;;;21.97;82.27;99545.05;126116;1093;26237;-60
2021/06/22 05:43:43;;;;;;;30.73;14.73;;;;;;;22.05;81.82;99542.16;126499;1093;22809;-62
2021/06/22 05:46:15;;;;;;;36.30;14.85;;;;;;;22.13;81.37;99537.19;127827;1093;22846;-62
2021/06/22 05:48:46;;;;;;;33.45;15.50;;;;;;;22.20;81.49;99534.30;126642;1093;27153;-61
2021/06/22 05:51:18;;;;;;;28.08;15.25;;;;;;;22.28;81.38;99542.80;126084;1093;22772;-60
2021/06/22 05:53:52;;;;;;;33.80;16.15;;;;;;;22.36;81.10;99546.36;126253;1092;22957;-59
2021/06/22 05:56:32;;;;;;;29.38;15.50;;;;;;;22.42;80.86;99539.11;125929;1093;22928;-61
2021/06/22 05:59:03;;;;;;;33.33;15.98;;;;;;;22.52;80.80;99542.84;126082;1092;27128;-59
2021/06/22 06:01:35;;;;;;;30.60;16.20;;;;;;;22.61;80.92;99550.02;126064;1093;22761;-60
2021/06/22 06:04:07;;;;;;;30.15;16.20;;;;;;;22.66;80.41;99546.17;126067;1093;22766;-62
2021/06/22 06:06:39;;;;;;;38.08;18.18;;;;;;;22.72;80.29;99538.16;126010;1092;22819;-61
2021/06/22 06:09:11;;;;;;;30.50;16.73;;;;;;;22.75;80.31;99536.25;126048;1092;22771;-62
2021/06/22 06:11:42;;;;;;;36.20;17.10;;;;;;;22.78;80.36;99538.69;125797;1092;22761;-60
2021/06/22 06:14:15;;;;;;;29.28;16.55;;;;;;;22.88;80.34;99541.66;126066;1092;22800;-62
2021/06/22 06:16:46;;;;;;;33.23;18.45;;;;;;;23.00;80.47;99546.30;126141;1092;22770;-62
2021/06/22 06:19:18;;;;;;;35.05;18.40;;;;;;;23.15;79.90;99553.95;125963;1093;25572;-60
2021/06/22 06:21:51;;;;;;;29.33;16.75;;;;;;;23.26;79.19;99547.76;125880;1092;27406;-62
2021/06/22 06:24:22;;;;;;;29.95;17.75;;;;;;;23.40;79.51;99545.39;126231;1093;22761;-60
2021/06/22 06:27:01;;;;;;;35.95;18.28;;;;;;;23.50;78.42;99551.93;125927;1093;23480;-60
2021/06/22 06:29:42;;;;;;;33.83;17.30;;;;;;;23.53;78.51;99551.51;125970;1093;22755;-66
2021/06/22 06:32:13;;;;;;;41.18;18.73;;;;;;;23.60;78.60;99544.98;125915;1093;24180;-62
2021/06/22 06:34:45;;;;;;;28.80;16.38;;;;;;;23.65;78.06;99543.96;126039;1093;24427;-62
2021/06/22 06:37:17;;;;;;;30.55;18.30;;;;;;;23.69;77.81;99560.66;126105;1092;22772;-61
2021/06/22 06:39:49;;;;;;;27.17;17.30;;;;;;;23.68;77.60;99561.98;125980;1092;25809;-61
2021/06/22 06:42:21;;;;;;;28.43;16.55;;;;;;;23.62;77.20;99558.64;126101;1093;28349;-61
2021/06/22 06:44:53;;;;;;;33.43;17.60;;;;;;;23.53;77.56;99545.81;126578;1093;24452;-59
2021/06/22 06:47:27;;;;;;;31.23;16.70;;;;;;;23.48;77.49;99543.22;126311;1092;22790;-59
2021/06/22 06:50:00;;;;;;;26.10;15.80;;;;;;;23.43;77.59;99552.75;125907;1093;22778;-59
2021/06/22 06:52:32;;;;;;;35.58;17.03;;;;;;;23.43;77.62;99542.12;125697;1092;27154;-59
2021/06/22 06:55:04;;;;;;;35.58;17.70;;;;;;;23.42;77.46;99552.02;125714;1093;22754;-59
2021/06/22 07:00:59;;;;;;;35.75;17.40;;;;;;;23.49;77.53;99533.31;125633;1093;24185;-59
2021/06/22 07:03:31;;;;;;;36.25;18.40;;;;;;;23.54;77.62;99532.33;125781;1093;22835;-59
2021/06/22 07:06:02;;;;;;;30.85;18.65;;;;;;;23.63;77.75;99538.09;125842;1091;22764;-60
2021/06/22 07:08:34;;;;;;;32.13;18.38;;;;;;;23.73;77.12;99547.48;125699;1093;22896;-59
2021/06/22 07:11:06;;;;;;;34.43;18.00;;;;;;;23.73;77.15;99541.78;125615;1091;27178;-59
2021/06/22 07:13:37;;;;;;;28.78;18.03;;;;;;;23.76;76.66;99548.41;125608;1093;25604;-59
2021/06/22 07:16:11;;;;;;;26.48;15.55;;;;;;;23.77;77.15;99549.92;125697;1093;22833;-59
2021/06/22 07:18:43;;;;;;;31.83;17.30;;;;;;;23.80;76.94;99560.90;125748;1093;23372;-59
2021/06/22 07:21:16;;;;;;;34.65;19.25;;;;;;;23.82;76.40;99557.45;125723;1093;22848;-60
2021/06/22 07:23:49;;;;;;;31.25;18.80;;;;;;;23.82;76.74;99569.61;125867;1093;24430;-59
2021/06/22 07:26:22;;;;;;;30.60;17.58;;;;;;;23.88;77.06;99580.75;125806;1093;22770;-59
2021/06/22 07:28:54;;;;;;;29.30;17.58;;;;;;;23.97;77.19;99594.34;125810;1093;24430;-59
2021/06/22 07:31:25;;;;;;;31.43;17.17;;;;;;;24.02;76.31;99599.05;125774;1092;22919;-60
2021/06/22 07:33:57;;;;;;;32.85;20.05;;;;;;;24.04;76.28;99604.94;125704;1093;27648;-60
2021/06/22 07:36:29;;;;;;;32.53;20.55;;;;;;;24.08;76.31;99625.97;125740;1093;22813;-60
2021/06/22 07:39:01;;;;;;;30.13;18.15;;;;;;;24.11;76.29;99626.89;125731;1093;23748;-60
2021/06/22 07:41:33;;;;;;;33.53;18.98;;;;;;;24.14;76.03;99633.53;126007;1093;22776;-60
2021/06/22 07:44:05;;;;;;;29.08;19.88;;;;;;;24.19;75.91;99633.27;125730;1093;27205;-61
2021/06/22 07:46:37;;;;;;;32.05;17.75;;;;;;;24.24;75.80;99629.41;125911;1093;22792;-60
2021/06/22 07:49:09;;;;;;;28.38;17.43;;;;;;;24.34;75.86;99626.61;125851;1093;22846;-59
2021/06/22 07:51:41;;;;;;;29.55;17.25;;;;;;;24.47;75.18;99623.41;125699;1093;27192;-60
2021/06/22 07:54:14;;;;;;;30.00;17.80;;;;;;;24.58;75.24;99617.19;125800;1093;22764;-60
2021/06/22 07:56:46;;;;;;;24.15;15.80;;;;;;;24.71;75.09;99611.08;125850;1093;22797;-60
2021/06/22 07:59:18;;;;;;;27.85;16.65;;;;;;;24.77;74.63;99600.16;125630;1092;22797;-60
2021/06/22 08:01:51;;;;;;;31.08;17.60;;;;;;;24.86;74.22;99597.38;125734;1093;22771;-60
2021/06/22 08:04:24;;;;;;;30.13;17.20;;;;;;;24.97;73.98;99601.02;125606;1093;22800;-60
2021/06/22 08:06:56;;;;;;;28.00;17.23;;;;;;;25.08;73.62;99612.63;125639;1093;22781;-60
2021/06/22 08:09:27;;;;;;;31.53;17.33;;;;;;;25.15;73.76;99625.28;125633;1092;22921;-58
2021/06/22 08:12:00;;;;;;;36.47;17.37;;;;;;;25.28;73.70;99639.94;125627;1093;22766;-60
2021/06/22 08:14:33;;;;;;;26.30;17.03;;;;;;;25.44;73.58;99643.31;125860;1093;22794;-60
2021/06/22 08:17:07;;;;;;;36.00;19.55;;;;;;;25.47;72.97;99631.42;125697;1093;26257;-60
2021/06/22 08:19:38;;;;;;;30.63;17.78;;;;;;;25.50;72.65;99632.34;125649;1093;27106;-60
2021/06/22 08:22:11;;;;;;;27.88;18.10;;;;;;;25.53;72.22;99634.02;125618;1093;22804;-61
2021/06/22 08:24:43;;;;;;;33.28;18.10;;;;;;;25.52;71.96;99643.93;125713;1093;24454;-61
2021/06/22 08:27:15;;;;;;;30.67;19.03;;;;;;;25.56;72.22;99642.14;125652;1093;22844;-61
2021/06/22 08:29:47;;;;;;;27.50;17.50;;;;;;;25.58;71.79;99639.44;125816;1093;22767;-60
2021/06/22 08:32:18;;;;;;;25.88;15.43;;;;;;;25.61;71.95;99638.25;125731;1093;22767;-60
2021/06/22 08:34:50;;;;;;;35.40;16.15;;;;;;;25.64;71.88;99639.90;125759;1093;22797;-61
2021/06/22 08:37:22;;;;;;;25.18;15.90;;;;;;;25.66;71.54;99648.63;125686;1093;22765;-61
2021/06/22 08:39:54;;;;;;;27.33;15.45;;;;;;;25.68;71.28;99647.29;125748;1092;22767;-60
2021/06/22 08:42:26;;;;;;;24.05;15.30;;;;;;;25.68;70.90;99648.02;126046;1092;30019;-61
2021/06/22 08:44:58;;;;;;;23.70;16.03;;;;;;;25.67;71.03;99646.53;126164;1093;22803;-61
2021/06/22 08:47:30;;;;;;;30.18;15.18;;;;;;;25.65;70.69;99643.52;125741;1092;23112;-61
2021/06/22 08:50:02;;;;;;;31.18;15.98;;;;;;;25.63;70.54;99644.13;125750;1092;22772;-61
2021/06/22 08:52:35;;;;;;;25.05;16.30;;;;;;;25.61;70.74;99640.35;125832;1093;27632;-61
2021/06/22 08:55:25;;;;;;;24.63;15.10;;;;;;;25.60;70.81;99639.59;125778;1093;22794;-61
2021/06/22 08:58:01;;;;;;;23.70;14.10;;;;;;;25.62;70.45;99642.60;125721;1092;22803;-61
2021/06/22 09:00:36;;;;;;;26.80;15.23;;;;;;;25.62;70.02;99645.46;125732;1092;22772;-60
2021/06/22 09:03:12;;;;;;;26.47;14.80;;;;;;;25.63;70.01;99643.36;125997;1093;22767;-61
2021/06/22 09:05:48;;;;;;;24.38;13.68;;;;;;;25.65;70.32;99643.52;126002;1093;22929;-61
2021/06/22 09:08:26;;;;;;;24.17;11.93;;;;;;;25.68;69.89;99656.59;125847;1093;22767;-61
2021/06/22 09:11:06;;;;;;;20.13;12.05;;;;;;;25.61;69.36;99661.13;125807;1093;22768;-61
2021/06/22 09:13:39;;;;;;;21.13;9.80;;;;;;;25.49;69.35;99656.57;125731;1093;22793;-61
2021/06/22 09:16:15;;;;;;;22.40;9.45;;;;;;;25.41;69.36;99664.52;125930;1093;26568;-60
2021/06/22 09:18:47;;;;;;;19.20;8.88;;;;;;;25.35;69.21;99666.85;125749;1093;28520;-61
2021/06/22 09:21:22;;;;;;;14.98;7.33;;;;;;;25.29;68.94;99667.14;125729;1093;22783;-61
2021/06/22 09:23:55;;;;;;;15.80;6.95;;;;;;;25.22;68.65;99675.84;125949;1093;22767;-61
2021/06/22 09:26:30;;;;;;;15.35;6.43;;;;;;;25.12;68.11;99670.07;125790;1093;25851;-61
2021/06/22 09:29:13;;;;;;;16.30;5.93;;;;;;;25.01;68.19;99670.64;125733;1092;26267;-60
2021/06/22 09:31:54;;;;;;;15.68;5.15;;;;;;;24.93;68.17;99666.38;125792;1092;26744;-60
2021/06/22 09:34:27;;;;;;;12.93;6.13;;;;;;;24.88;68.33;99676.72;125843;1093;26499;-60
2021/06/22 09:37:03;;;;;;;10.67;4.20;;;;;;;24.90;68.13;99679.73;125774;1093;22773;-61
2021/06/22 09:39:35;;;;;;;10.88;4.00;;;;;;;24.98;67.96;99679.61;125885;1093;23467;-61
2021/06/22 09:42:12;;;;;;;10.83;4.10;;;;;;;25.07;67.33;99699.67;125878;1093;22767;-61
2021/06/22 09:44:45;;;;;;;12.23;4.10;;;;;;;25.09;67.70;99688.41;125903;1093;22948;-61
2021/06/22 09:47:30;;;;;;;12.78;4.23;;;;;;;25.19;67.36;99691.30;125718;1092;22794;-60
2021/06/22 09:50:01;;;;;;;10.25;3.48;;;;;;;25.23;66.29;99698.09;125762;1093;26462;-60
2021/06/22 09:52:33;;;;;;;9.03;4.53;;;;;;;25.18;66.43;99693.40;125732;1093;22806;-61
2021/06/22 09:55:06;;;;;;;9.90;3.53;;;;;;;25.16;66.71;99687.52;125795;1093;22775;-61
2021/06/22 09:57:46;;;;;;;11.50;3.63;;;;;;;25.19;66.06;99691.30;125803;1093;26271;-61
2021/06/22 10:00:19;;;;;;;12.45;3.65;;;;;;;25.20;66.06;99684.25;125787;1093;22767;-61
2021/06/22 10:02:53;;;;;;;8.95;3.40;;;;;;;25.19;66.06;99686.34;125966;1093;22767;-61
2021/06/22 10:05:25;;;;;;;10.35;3.53;;;;;;;25.22;66.24;99688.03;125912;1093;22748;-61
2021/06/22 10:08:01;;;;;;;10.80;3.33;;;;;;;25.25;65.79;99686.83;125829;1093;22767;-61
2021/06/22 10:10:40;;;;;;;10.70;3.97;;;;;;;25.24;65.53;99690.28;125829;1093;22773;-60
2021/06/22 10:13:32;;;;;;;11.05;3.58;;;;;;;25.24;65.55;99687.43;125928;1092;22774;-62
2021/06/22 10:16:24;;;;;;;9.75;3.68;;;;;;;25.33;65.85;99698.13;125747;1093;22797;-62
2021/06/22 10:18:56;;;;;;;13.83;4.33;;;;;;;25.38;65.66;99691.39;125959;1093;24430;-61
2021/06/22 10:21:29;;;;;;;12.65;4.50;;;;;;;25.40;65.14;99698.02;125734;1092;23043;-62
2021/06/22 10:24:01;;;;;;;11.38;3.55;;;;;;;25.38;65.04;99700.72;125882;1093;22805;-61
2021/06/22 10:26:33;;;;;;;12.70;3.78;;;;;;;25.36;65.38;99691.99;125806;1093;25925;-61
2021/06/22 10:29:05;;;;;;;11.93;3.18;;;;;;;25.42;65.20;99694.59;125780;1093;22767;-61
2021/06/22 10:31:37;;;;;;;12.80;3.83;;;;;;;25.45;64.92;99699.86;125922;1093;22817;-60
2021/06/22 10:34:09;;;;;;;11.50;4.33;;;;;;;25.45;64.67;99702.72;125825;1093;22767;-61
2021/06/22 10:36:49;;;;;;;11.95;4.23;;;;;;;25.46;64.85;99709.20;125822;1093;22855;-60
2021/06/22 10:39:37;;;;;;;8.25;3.38;;;;;;;25.39;64.34;99690.78;125838;1093;26267;-61
2021/06/22 10:42:13;;;;;;;11.15;4.05;;;;;;;25.25;64.36;99711.77;125772;1093;27150;-60
2021/06/22 10:44:52;;;;;;;12.80;3.78;;;;;;;25.13;64.52;99711.58;125798;1092;26347;-60
2021/06/22 10:47:34;;;;;;;9.53;3.20;;;;;;;25.04;64.09;99715.13;125824;1092;22771;-61
2021/06/22 10:50:17;;;;;;;8.43;3.43;;;;;;;24.96;64.54;99711.63;125810;1092;22748;-61
2021/06/22 10:53:01;;;;;;;10.03;3.83;;;;;;;24.92;64.81;99716.25;125791;1093;22767;-60
2021/06/22 10:55:57;;;;;;;8.95;3.40;;;;;;;24.88;64.65;99708.13;125928;1093;22799;-61
2021/06/22 10:58:29;;;;;;;14.67;4.00;;;;;;;24.87;64.69;99718.78;125776;1096;22938;-60
2021/06/22 11:01:22;;;;;;;12.03;3.53;;;;;;;24.86;64.92;99717.29;125874;1095;26498;-61
2021/06/22 11:04:13;;;;;;;9.30;3.87;;;;;;;24.91;64.68;99717.62;125615;1095;27160;-61
2021/06/22 11:07:01;;;;;;;14.75;4.00;;;;;;;24.91;64.79;99709.05;125739;1096;22860;-61
2021/06/22 11:09:33;;;;;;;11.40;5.10;;;;;;;24.90;64.67;99711.14;125798;1096;26560;-61
2021/06/22 11:15:11;;;;;;;14.63;4.05;;;;;;;24.91;64.75;99703.34;126607;1087;22792;-59
2021/06/22 11:18:06;;;;;;;12.57;4.43;;;;;;;24.95;65.09;99706.52;126505;1089;22750;-61
2021/06/22 11:20:38;;;;;;;16.08;5.68;;;;;;;25.05;65.08;99699.52;126546;1090;22780;-61
2021/06/22 11:23:13;;;;;;;11.15;4.58;;;;;;;25.12;65.10;99698.63;126445;1088;27629;-61
2021/06/22 11:25:54;;;;;;;12.63;4.85;;;;;;;25.18;64.99;99698.38;126496;1090;22761;-62
2021/06/22 11:28:26;;;;;;;12.85;5.40;;;;;;;25.14;64.55;99693.08;126466;1090;22874;-62
2021/06/22 11:31:00;;;;;;;12.53;5.35;;;;;;;25.05;64.33;99698.75;126390;1090;26523;-62
2021/06/22 11:33:39;;;;;;;12.28;5.03;;;;;;;25.04;65.00;99702.97;126468;1090;22815;-61
2021/06/22 11:36:43;;;;;;;14.78;5.85;;;;;;;25.06;64.75;99701.01;126635;1090;22790;-61
2021/06/22 11:39:20;;;;;;;13.88;5.68;;;;;;;25.12;64.99;99710.06;126025;1090;23412;-61
2021/06/22 11:42:23;;;;;;;13.15;5.53;;;;;;;25.20;64.69;99707.11;126034;1090;22769;-61
2021/06/22 11:45:18;;;;;;;10.70;6.33;;;;;;;25.26;64.79;99704.73;126014;1090;27999;-61
2021/06/22 11:47:55;;;;;;;15.25;6.80;;;;;;;25.36;64.44;99717.71;126058;1090;22800;-62
2021/06/22 11:50:32;;;;;;;16.83;7.28;;;;;;;25.35;64.34;99715.42;125933;1090;22780;-61